sensor_id;sensor_type;location;lat;lon;timestamp;pressure;altitude;pressure_sealevel;temperature;humidity
75668;BME280;64266;48.798;44.756;2023-07-24T00:01:33;100827.97;;;23.13;54.36
75668;BME280;64266;48.798;44.756;2023-07-24T00:06:36;100809.41;;;22.93;54.86
75668;BME280;64266;48.798;44.756;2023-07-24T00:11:40;100771.41;;;22.71;55.15
75668;BME280;64266;48.798;44.756;2023-07-24T00:16:44;100795.81;;;22.66;56.06
75668;BME280;64266;48.798;44.756;2023-07-24T00:21:47;100809.91;;;22.63;56.82
75668;BME280;64266;48.798;44.756;2023-07-24T00:26:50;100815.91;;;22.60;57.11
75668;BME280;64266;48.798;44.756;2023-07-24T00:31:53;100806.44;;;22.44;57.37
75668;BME280;64266;48.798;44.756;2023-07-24T00:36:56;100792.88;;;22.30;57.88
75668;BME280;64266;48.798;44.756;2023-07-24T00:41:59;100813.22;;;22.41;58.22
75668;BME280;64266;48.798;44.756;2023-07-24T00:47:02;100804.78;;;22.29;58.71
75668;BME280;64266;48.798;44.756;2023-07-24T00:52:05;100805.38;;;22.26;58.64
75668;BME280;64266;48.798;44.756;2023-07-24T00:57:10;100800.41;;;22.14;59.07
75668;BME280;64266;48.798;44.756;2023-07-24T01:02:13;100820.41;;;22.13;59.42
75668;BME280;64266;48.798;44.756;2023-07-24T01:07:15;100806.09;;;21.94;59.75
75668;BME280;64266;48.798;44.756;2023-07-24T01:17:57;100813.56;;;21.79;59.49
75668;BME280;64266;48.798;44.756;2023-07-24T01:23:29;100843.84;;;21.99;59.14
75668;BME280;64266;48.798;44.756;2023-07-24T01:28:40;100832.59;;;21.87;59.50
75668;BME280;64266;48.798;44.756;2023-07-24T01:33:46;100826.72;;;21.85;59.04
75668;BME280;64266;48.798;44.756;2023-07-24T01:38:53;100859.25;;;22.18;58.80
75668;BME280;64266;48.798;44.756;2023-07-24T01:43:59;100840.63;;;22.16;57.91
75668;BME280;64266;48.798;44.756;2023-07-24T01:49:02;100840.34;;;22.18;57.68
75668;BME280;64266;48.798;44.756;2023-07-24T01:54:05;100855.81;;;22.31;58.04
75668;BME280;64266;48.798;44.756;2023-07-24T01:59:08;100852.75;;;22.19;57.71
75668;BME280;64266;48.798;44.756;2023-07-24T02:04:12;100877.41;;;22.31;57.54
75668;BME280;64266;48.798;44.756;2023-07-24T02:09:17;100879.25;;;22.35;57.39
75668;BME280;64266;48.798;44.756;2023-07-24T02:14:22;100846.53;;;22.18;57.44
75668;BME280;64266;48.798;44.756;2023-07-24T02:19:26;100823.69;;;22.10;57.34
75668;BME280;64266;48.798;44.756;2023-07-24T02:24:29;100888.69;;;22.38;57.21
75668;BME280;64266;48.798;44.756;2023-07-24T02:29:33;100892.91;;;22.44;56.73
75668;BME280;64266;48.798;44.756;2023-07-24T02:34:37;100802.22;;;22.00;56.62
75668;BME280;64266;48.798;44.756;2023-07-24T02:39:40;100887.81;;;22.61;56.55
75668;BME280;64266;48.798;44.756;2023-07-24T02:44:44;100879.16;;;22.59;56.61
75668;BME280;64266;48.798;44.756;2023-07-24T02:49:46;100878.84;;;22.65;56.70
75668;BME280;64266;48.798;44.756;2023-07-24T02:54:49;100888.44;;;22.90;55.86
75668;BME280;64266;48.798;44.756;2023-07-24T02:59:53;100887.75;;;22.98;55.65
75668;BME280;64266;48.798;44.756;2023-07-24T03:04:55;100893.16;;;22.98;55.21
75668;BME280;64266;48.798;44.756;2023-07-24T03:09:58;100892.88;;;23.00;54.88
75668;BME280;64266;48.798;44.756;2023-07-24T03:15:00;100897.13;;;23.65;53.07
75668;BME280;64266;48.798;44.756;2023-07-24T03:20:14;100910.34;;;23.94;52.65
75668;BME280;64266;48.798;44.756;2023-07-24T03:25:18;100856.09;;;23.72;52.71
75668;BME280;64266;48.798;44.756;2023-07-24T03:30:21;100862.63;;;23.71;52.81
75668;BME280;64266;48.798;44.756;2023-07-24T03:35:25;100896.22;;;23.70;53.39
75668;BME280;64266;48.798;44.756;2023-07-24T03:40:32;100888.28;;;23.60;53.02
75668;BME280;64266;48.798;44.756;2023-07-24T03:45:34;100905.84;;;23.62;53.71
75668;BME280;64266;48.798;44.756;2023-07-24T03:50:37;100886.47;;;24.23;52.07
75668;BME280;64266;48.798;44.756;2023-07-24T03:55:40;100899.75;;;25.45;49.40
75668;BME280;64266;48.798;44.756;2023-07-24T04:00:43;100906.78;;;25.68;48.69
75668;BME280;64266;48.798;44.756;2023-07-24T04:05:45;100880.06;;;26.35;48.00
75668;BME280;64266;48.798;44.756;2023-07-24T04:10:50;100893.22;;;27.39;44.59
75668;BME280;64266;48.798;44.756;2023-07-24T04:15:54;100905.06;;;27.52;44.62
75668;BME280;64266;48.798;44.756;2023-07-24T04:20:57;100843.88;;;27.32;44.72
75668;BME280;64266;48.798;44.756;2023-07-24T04:26:00;100891.31;;;28.28;43.50
75668;BME280;64266;48.798;44.756;2023-07-24T04:31:03;100890.28;;;29.27;41.45
75668;BME280;64266;48.798;44.756;2023-07-24T04:36:06;100901.69;;;30.14;39.71
75668;BME280;64266;48.798;44.756;2023-07-24T04:41:10;100888.03;;;30.82;37.59
75668;BME280;64266;48.798;44.756;2023-07-24T04:46:14;100883.59;;;31.36;37.34
75668;BME280;64266;48.798;44.756;2023-07-24T04:51:17;100891.81;;;32.18;35.49
75668;BME280;64266;48.798;44.756;2023-07-24T04:56:21;100894.44;;;32.88;34.64
75668;BME280;64266;48.798;44.756;2023-07-24T05:01:27;100889.28;;;33.51;32.89
75668;BME280;64266;48.798;44.756;2023-07-24T05:06:35;100878.91;;;33.90;32.35
75668;BME280;64266;48.798;44.756;2023-07-24T05:11:40;100904.22;;;34.58;32.07
75668;BME280;64266;48.798;44.756;2023-07-24T05:16:44;100898.94;;;34.76;30.72
75668;BME280;64266;48.798;44.756;2023-07-24T05:21:47;100912.91;;;34.94;30.51
75668;BME280;64266;48.798;44.756;2023-07-24T05:26:52;100905.00;;;35.29;30.20
75668;BME280;64266;48.798;44.756;2023-07-24T05:31:56;100901.38;;;35.62;29.94
75668;BME280;64266;48.798;44.756;2023-07-24T05:37:00;100881.09;;;35.98;28.16
75668;BME280;64266;48.798;44.756;2023-07-24T05:42:04;100890.66;;;36.15;28.17
75668;BME280;64266;48.798;44.756;2023-07-24T05:47:07;100873.34;;;36.18;28.91
75668;BME280;64266;48.798;44.756;2023-07-24T05:52:11;100888.44;;;36.45;27.11
75668;BME280;64266;48.798;44.756;2023-07-24T05:57:17;100875.47;;;36.60;27.72
75668;BME280;64266;48.798;44.756;2023-07-24T06:02:19;100868.78;;;36.71;26.77
75668;BME280;64266;48.798;44.756;2023-07-24T06:07:23;100881.81;;;36.74;26.89
75668;BME280;64266;48.798;44.756;2023-07-24T06:12:25;100884.59;;;36.78;26.90
75668;BME280;64266;48.798;44.756;2023-07-24T06:17:28;100871.16;;;36.76;26.81
75668;BME280;64266;48.798;44.756;2023-07-24T06:22:32;100875.50;;;36.77;26.04
75668;BME280;64266;48.798;44.756;2023-07-24T06:27:35;100860.94;;;36.91;26.73
75668;BME280;64266;48.798;44.756;2023-07-24T06:32:37;100849.13;;;37.22;26.23
75668;BME280;64266;48.798;44.756;2023-07-24T06:37:40;100862.16;;;37.68;24.96
75668;BME280;64266;48.798;44.756;2023-07-24T06:42:42;100860.09;;;38.04;22.98
75668;BME280;64266;48.798;44.756;2023-07-24T06:47:44;100852.56;;;38.08;23.47
75668;BME280;64266;48.798;44.756;2023-07-24T06:52:48;100845.06;;;37.97;22.62
75668;BME280;64266;48.798;44.756;2023-07-24T06:57:55;100835.97;;;37.93;23.29
75668;BME280;64266;48.798;44.756;2023-07-24T07:02:57;100851.34;;;38.16;22.97
75668;BME280;64266;48.798;44.756;2023-07-24T07:08:00;100825.66;;;38.12;22.37
75668;BME280;64266;48.798;44.756;2023-07-24T07:13:04;100841.13;;;37.88;23.33
75668;BME280;64266;48.798;44.756;2023-07-24T07:18:07;100838.78;;;37.83;23.50
75668;BME280;64266;48.798;44.756;2023-07-24T07:23:09;100826.91;;;37.72;23.74
75668;BME280;64266;48.798;44.756;2023-07-24T07:28:13;100843.13;;;37.91;22.85
75668;BME280;64266;48.798;44.756;2023-07-24T07:33:17;100833.22;;;37.83;22.81
75668;BME280;64266;48.798;44.756;2023-07-24T07:38:20;100813.13;;;37.36;23.53
75668;BME280;64266;48.798;44.756;2023-07-24T07:43:25;100838.03;;;37.29;23.54
75668;BME280;64266;48.798;44.756;2023-07-24T07:48:28;100811.94;;;36.88;23.90
75668;BME280;64266;48.798;44.756;2023-07-24T07:53:31;100783.81;;;36.33;23.99
75668;BME280;64266;48.798;44.756;2023-07-24T07:58:34;100778.47;;;35.85;25.20
75668;BME280;64266;48.798;44.756;2023-07-24T08:03:37;100813.97;;;35.90;25.75
75668;BME280;64266;48.798;44.756;2023-07-24T08:08:39;100811.34;;;35.43;25.90
75668;BME280;64266;48.798;44.756;2023-07-24T08:13:43;100805.84;;;34.99;26.76
75668;BME280;64266;48.798;44.756;2023-07-24T08:18:47;100817.13;;;34.83;26.59
75668;BME280;64266;48.798;44.756;2023-07-24T08:23:54;100802.75;;;34.30;26.77
75668;BME280;64266;48.798;44.756;2023-07-24T08:28:56;100813.03;;;34.04;27.54
75668;BME280;64266;48.798;44.756;2023-07-24T08:34:00;100795.97;;;33.61;28.51
75668;BME280;64266;48.798;44.756;2023-07-24T08:39:03;100818.69;;;33.58;28.71
75668;BME280;64266;48.798;44.756;2023-07-24T08:44:08;100805.88;;;33.43;27.73
75668;BME280;64266;48.798;44.756;2023-07-24T08:49:12;100817.69;;;33.44;28.17
75668;BME280;64266;48.798;44.756;2023-07-24T08:54:19;100808.00;;;33.27;27.89
75668;BME280;64266;48.798;44.756;2023-07-24T08:59:22;100807.78;;;33.13;27.95
75668;BME280;64266;48.798;44.756;2023-07-24T09:04:25;100769.53;;;32.82;28.71
75668;BME280;64266;48.798;44.756;2023-07-24T09:09:29;100796.34;;;32.88;27.45
75668;BME280;64266;48.798;44.756;2023-07-24T09:14:34;100800.28;;;32.68;27.82
75668;BME280;64266;48.798;44.756;2023-07-24T09:19:37;100801.56;;;32.55;27.52
75668;BME280;64266;48.798;44.756;2023-07-24T09:24:50;100805.00;;;32.48;28.56
75668;BME280;64266;48.798;44.756;2023-07-24T09:29:54;100774.22;;;32.01;28.44
75668;BME280;64266;48.798;44.756;2023-07-24T09:34:57;100764.69;;;31.95;29.18
75668;BME280;64266;48.798;44.756;2023-07-24T09:40:04;100774.03;;;32.09;29.10
75668;BME280;64266;48.798;44.756;2023-07-24T09:45:08;100791.41;;;31.98;29.88
75668;BME280;64266;48.798;44.756;2023-07-24T09:50:13;100781.72;;;31.85;29.40
75668;BME280;64266;48.798;44.756;2023-07-24T09:55:26;100793.09;;;32.02;29.84
75668;BME280;64266;48.798;44.756;2023-07-24T10:00:33;100783.88;;;31.76;29.79
75668;BME280;64266;48.798;44.756;2023-07-24T10:05:36;100760.91;;;31.64;31.06
75668;BME280;64266;48.798;44.756;2023-07-24T10:10:39;100757.47;;;31.67;30.34
75668;BME280;64266;48.798;44.756;2023-07-24T10:15:43;100774.38;;;31.89;30.24
75668;BME280;64266;48.798;44.756;2023-07-24T10:20:47;100742.66;;;31.91;30.12
75668;BME280;64266;48.798;44.756;2023-07-24T10:25:53;100727.31;;;31.87;29.38
75668;BME280;64266;48.798;44.756;2023-07-24T10:30:57;100740.00;;;31.95;29.37
75668;BME280;64266;48.798;44.756;2023-07-24T10:36:08;100736.94;;;32.00;29.62
75668;BME280;64266;48.798;44.756;2023-07-24T10:41:16;100731.22;;;32.05;29.57
75668;BME280;64266;48.798;44.756;2023-07-24T10:46:20;100761.81;;;32.26;29.47
75668;BME280;64266;48.798;44.756;2023-07-24T10:51:23;100721.81;;;32.06;29.09
75668;BME280;64266;48.798;44.756;2023-07-24T10:56:26;100723.09;;;32.12;28.55
75668;BME280;64266;48.798;44.756;2023-07-24T11:01:31;100729.59;;;32.23;28.77
75668;BME280;64266;48.798;44.756;2023-07-24T11:06:39;100724.34;;;32.14;29.81
75668;BME280;64266;48.798;44.756;2023-07-24T11:11:43;100735.38;;;32.18;28.52
75668;BME280;64266;48.798;44.756;2023-07-24T11:16:49;100718.34;;;32.09;28.75
75668;BME280;64266;48.798;44.756;2023-07-24T11:21:52;100711.41;;;31.96;28.97
75668;BME280;64266;48.798;44.756;2023-07-24T11:26:54;100711.72;;;32.10;28.81
75668;BME280;64266;48.798;44.756;2023-07-24T11:31:57;100703.78;;;32.05;29.18
75668;BME280;64266;48.798;44.756;2023-07-24T11:37:01;100707.56;;;32.00;28.60
75668;BME280;64266;48.798;44.756;2023-07-24T11:42:06;100703.34;;;32.03;28.42
75668;BME280;64266;48.798;44.756;2023-07-24T11:47:09;100685.06;;;31.91;29.67
75668;BME280;64266;48.798;44.756;2023-07-24T11:52:11;100698.13;;;31.98;29.01
75668;BME280;64266;48.798;44.756;2023-07-24T11:57:15;100678.34;;;31.89;29.33
75668;BME280;64266;48.798;44.756;2023-07-24T12:02:19;100678.50;;;31.96;28.41
75668;BME280;64266;48.798;44.756;2023-07-24T12:07:35;100689.81;;;31.94;28.93
75668;BME280;64266;48.798;44.756;2023-07-24T12:12:46;100680.66;;;31.87;29.26
75668;BME280;64266;48.798;44.756;2023-07-24T12:17:49;100674.63;;;31.78;28.95
75668;BME280;64266;48.798;44.756;2023-07-24T12:22:52;100683.34;;;31.83;28.69
75668;BME280;64266;48.798;44.756;2023-07-24T12:27:56;100680.44;;;31.76;28.78
75668;BME280;64266;48.798;44.756;2023-07-24T12:32:58;100672.78;;;31.66;30.35
75668;BME280;64266;48.798;44.756;2023-07-24T12:38:02;100678.19;;;31.62;30.00
75668;BME280;64266;48.798;44.756;2023-07-24T12:43:05;100663.63;;;31.58;30.51
75668;BME280;64266;48.798;44.756;2023-07-24T12:48:08;100655.41;;;31.58;28.93
75668;BME280;64266;48.798;44.756;2023-07-24T12:53:11;100652.09;;;31.49;29.84
75668;BME280;64266;48.798;44.756;2023-07-24T12:58:18;100655.25;;;31.51;29.62
75668;BME280;64266;48.798;44.756;2023-07-24T13:03:20;100633.81;;;31.38;29.05
75668;BME280;64266;48.798;44.756;2023-07-24T13:08:24;100642.88;;;31.42;29.46
75668;BME280;64266;48.798;44.756;2023-07-24T13:13:27;100656.50;;;31.38;31.12
75668;BME280;64266;48.798;44.756;2023-07-24T13:18:30;100663.16;;;31.37;30.45
75668;BME280;64266;48.798;44.756;2023-07-24T13:23:32;100656.16;;;31.40;28.63
75668;BME280;64266;48.798;44.756;2023-07-24T13:28:35;100638.47;;;31.18;29.95
75668;BME280;64266;48.798;44.756;2023-07-24T13:33:38;100657.72;;;31.22;30.57
75668;BME280;64266;48.798;44.756;2023-07-24T13:38:41;100652.50;;;31.16;30.94
75668;BME280;64266;48.798;44.756;2023-07-24T13:43:45;100591.56;;;30.69;31.94
75668;BME280;64266;48.798;44.756;2023-07-24T13:48:48;100643.28;;;30.90;31.54
75668;BME280;64266;48.798;44.756;2023-07-24T13:53:51;100660.44;;;30.87;32.41
75668;BME280;64266;48.798;44.756;2023-07-24T13:58:57;100654.34;;;30.78;33.03
75668;BME280;64266;48.798;44.756;2023-07-24T14:04:00;100648.44;;;30.60;32.85
75668;BME280;64266;48.798;44.756;2023-07-24T14:09:03;100603.31;;;30.23;34.08
75668;BME280;64266;48.798;44.756;2023-07-24T14:14:07;100652.81;;;30.33;34.40
75668;BME280;64266;48.798;44.756;2023-07-24T14:19:09;100658.03;;;30.23;34.59
75668;BME280;64266;48.798;44.756;2023-07-24T14:24:13;100660.47;;;30.12;34.65
75668;BME280;64266;48.798;44.756;2023-07-24T14:29:16;100661.44;;;30.04;35.25
75668;BME280;64266;48.798;44.756;2023-07-24T14:34:19;100672.06;;;29.93;35.67
75668;BME280;64266;48.798;44.756;2023-07-24T14:39:22;100648.50;;;29.61;35.91
75668;BME280;64266;48.798;44.756;2023-07-24T14:44:25;100671.56;;;29.76;35.51
75668;BME280;64266;48.798;44.756;2023-07-24T14:49:28;100665.94;;;29.56;36.34
75668;BME280;64266;48.798;44.756;2023-07-24T14:54:32;100658.22;;;29.46;36.84
75668;BME280;64266;48.798;44.756;2023-07-24T14:59:40;100667.47;;;29.42;36.94
75668;BME280;64266;48.798;44.756;2023-07-24T15:04:42;100664.66;;;29.26;36.92
75668;BME280;64266;48.798;44.756;2023-07-24T15:09:45;100654.94;;;29.17;37.40
75668;BME280;64266;48.798;44.756;2023-07-24T15:14:48;100671.13;;;29.22;37.42
75668;BME280;64266;48.798;44.756;2023-07-24T15:19:51;100673.41;;;29.08;37.11
75668;BME280;64266;48.798;44.756;2023-07-24T15:24:54;100675.56;;;29.02;37.40
75668;BME280;64266;48.798;44.756;2023-07-24T15:29:58;100675.69;;;28.93;37.09
75668;BME280;64266;48.798;44.756;2023-07-24T15:35:00;100639.16;;;28.62;37.30
75668;BME280;64266;48.798;44.756;2023-07-24T15:40:04;100673.78;;;28.70;37.56
75668;BME280;64266;48.798;44.756;2023-07-24T15:45:08;100682.97;;;28.65;37.48
75668;BME280;64266;48.798;44.756;2023-07-24T15:50:11;100674.19;;;28.60;37.26
75668;BME280;64266;48.798;44.756;2023-07-24T15:55:13;100658.03;;;28.42;37.98
75668;BME280;64266;48.798;44.756;2023-07-24T16:00:16;100683.59;;;28.50;37.57
75668;BME280;64266;48.798;44.756;2023-07-24T16:05:20;100659.81;;;28.26;37.95
75668;BME280;64266;48.798;44.756;2023-07-24T16:10:23;100683.47;;;28.34;37.83
75668;BME280;64266;48.798;44.756;2023-07-24T16:15:26;100694.03;;;28.24;38.17
75668;BME280;64266;48.798;44.756;2023-07-24T16:20:32;100688.06;;;28.10;38.73
75668;BME280;64266;48.798;44.756;2023-07-24T16:25:37;100688.53;;;28.12;38.88
75668;BME280;64266;48.798;44.756;2023-07-24T16:30:39;100699.47;;;28.03;38.88
75668;BME280;64266;48.798;44.756;2023-07-24T16:35:43;100676.75;;;27.78;38.66
75668;BME280;64266;48.798;44.756;2023-07-24T16:40:47;100690.06;;;27.80;39.42
75668;BME280;64266;48.798;44.756;2023-07-24T16:45:49;100656.53;;;27.47;39.25
75668;BME280;64266;48.798;44.756;2023-07-24T16:50:56;100684.97;;;27.58;39.33
75668;BME280;64266;48.798;44.756;2023-07-24T16:55:59;100704.03;;;27.58;40.28
75668;BME280;64266;48.798;44.756;2023-07-24T17:01:01;100717.44;;;27.63;39.80
75668;BME280;64266;48.798;44.756;2023-07-24T17:06:04;100716.41;;;27.55;40.33
75668;BME280;64266;48.798;44.756;2023-07-24T17:11:07;100732.59;;;27.52;40.15
75668;BME280;64266;48.798;44.756;2023-07-24T17:16:09;100741.63;;;27.43;40.56
75668;BME280;64266;48.798;44.756;2023-07-24T17:21:11;100725.56;;;27.21;40.79
75668;BME280;64266;48.798;44.756;2023-07-24T17:26:14;100720.03;;;27.09;41.37
75668;BME280;64266;48.798;44.756;2023-07-24T17:31:16;100760.31;;;27.24;41.74
75668;BME280;64266;48.798;44.756;2023-07-24T17:36:19;100749.13;;;27.17;41.78
75668;BME280;64266;48.798;44.756;2023-07-24T17:41:22;100728.09;;;26.97;41.70
75668;BME280;64266;48.798;44.756;2023-07-24T17:46:25;100746.94;;;27.02;41.91
75668;BME280;64266;48.798;44.756;2023-07-24T17:51:27;100758.00;;;27.06;41.86
75668;BME280;64266;48.798;44.756;2023-07-24T17:56:30;100753.03;;;26.99;42.25
75668;BME280;64266;48.798;44.756;2023-07-24T18:01:35;100731.81;;;26.84;42.77
75668;BME280;64266;48.798;44.756;2023-07-24T18:06:39;100754.69;;;26.91;42.85
75668;BME280;64266;48.798;44.756;2023-07-24T18:11:41;100745.44;;;26.84;43.63
75668;BME280;64266;48.798;44.756;2023-07-24T18:16:44;100743.03;;;26.74;43.72
75668;BME280;64266;48.798;44.756;2023-07-24T18:21:46;100754.25;;;26.72;43.74
75668;BME280;64266;48.798;44.756;2023-07-24T18:26:49;100704.25;;;26.30;43.71
75668;BME280;64266;48.798;44.756;2023-07-24T18:31:51;100740.84;;;26.50;43.16
75668;BME280;64266;48.798;44.756;2023-07-24T18:36:55;100757.81;;;26.56;43.56
75668;BME280;64266;48.798;44.756;2023-07-24T18:41:57;100757.34;;;26.54;44.17
75668;BME280;64266;48.798;44.756;2023-07-24T18:47:00;100773.31;;;26.55;43.98
75668;BME280;64266;48.798;44.756;2023-07-24T18:52:03;100779.09;;;26.54;44.93
75668;BME280;64266;48.798;44.756;2023-07-24T18:57:05;100782.16;;;26.44;44.77
75668;BME280;64266;48.798;44.756;2023-07-24T19:02:08;100755.94;;;26.22;45.29
75668;BME280;64266;48.798;44.756;2023-07-24T19:07:11;100816.38;;;26.53;45.02
75668;BME280;64266;48.798;44.756;2023-07-24T19:12:13;100819.25;;;26.39;44.13
75668;BME280;64266;48.798;44.756;2023-07-24T19:17:20;100829.66;;;26.37;44.13
75668;BME280;64266;48.798;44.756;2023-07-24T19:22:22;100819.13;;;26.36;43.59
75668;BME280;64266;48.798;44.756;2023-07-24T19:27:25;100814.47;;;26.28;44.54
75668;BME280;64266;48.798;44.756;2023-07-24T19:32:30;100810.59;;;26.12;44.94
75668;BME280;64266;48.798;44.756;2023-07-24T19:37:34;100822.97;;;26.26;45.40
75668;BME280;64266;48.798;44.756;2023-07-24T19:42:37;100799.25;;;26.01;45.45
75668;BME280;64266;48.798;44.756;2023-07-24T19:47:40;100825.50;;;26.14;46.19
75668;BME280;64266;48.798;44.756;2023-07-24T19:52:42;100772.03;;;25.67;46.91
75668;BME280;64266;48.798;44.756;2023-07-24T19:57:49;100820.19;;;25.92;48.27
75668;BME280;64266;48.798;44.756;2023-07-24T20:02:53;100812.63;;;25.72;48.57
75668;BME280;64266;48.798;44.756;2023-07-24T20:07:56;100833.25;;;25.73;49.35
75668;BME280;64266;48.798;44.756;2023-07-24T20:12:59;100813.03;;;25.48;49.92
75668;BME280;64266;48.798;44.756;2023-07-24T20:18:02;100829.53;;;25.52;50.56
75668;BME280;64266;48.798;44.756;2023-07-24T20:23:05;100814.41;;;25.28;50.77
75668;BME280;64266;48.798;44.756;2023-07-24T20:28:08;100823.84;;;25.31;50.84
75668;BME280;64266;48.798;44.756;2023-07-24T20:33:11;100815.16;;;25.20;51.01
75668;BME280;64266;48.798;44.756;2023-07-24T20:38:22;100820.31;;;25.22;51.13
75668;BME280;64266;48.798;44.756;2023-07-24T20:43:27;100785.69;;;24.97;51.25
75668;BME280;64266;48.798;44.756;2023-07-24T20:48:30;100800.19;;;24.92;51.45
75668;BME280;64266;48.798;44.756;2023-07-24T20:53:34;100802.59;;;24.94;51.55
75668;BME280;64266;48.798;44.756;2023-07-24T20:58:37;100820.72;;;25.07;51.71
75668;BME280;64266;48.798;44.756;2023-07-24T21:03:40;100804.72;;;25.05;51.57
75668;BME280;64266;48.798;44.756;2023-07-24T21:08:44;100790.66;;;24.95;51.60
75668;BME280;64266;48.798;44.756;2023-07-24T21:13:46;100809.50;;;25.00;51.73
75668;BME280;64266;48.798;44.756;2023-07-24T21:18:49;100815.72;;;25.00;52.43
75668;BME280;64266;48.798;44.756;2023-07-24T21:23:53;100790.41;;;24.83;52.40
75668;BME280;64266;48.798;44.756;2023-07-24T21:29:00;100810.53;;;24.82;52.49
75668;BME280;64266;48.798;44.756;2023-07-24T21:34:04;100825.38;;;24.84;52.40
75668;BME280;64266;48.798;44.756;2023-07-24T21:39:06;100833.81;;;24.83;53.22
75668;BME280;64266;48.798;44.756;2023-07-24T21:44:28;100816.34;;;24.75;52.84
75668;BME280;64266;48.798;44.756;2023-07-24T21:49:31;100805.13;;;24.68;53.35
75668;BME280;64266;48.798;44.756;2023-07-24T21:54:36;100823.69;;;24.74;53.58
75668;BME280;64266;48.798;44.756;2023-07-24T21:59:39;100818.06;;;24.71;53.71
75668;BME280;64266;48.798;44.756;2023-07-24T22:04:42;100811.44;;;24.55;54.18
75668;BME280;64266;48.798;44.756;2023-07-24T22:09:45;100818.88;;;24.49;54.35
75668;BME280;64266;48.798;44.756;2023-07-24T22:14:48;100812.13;;;24.38;55.09
75668;BME280;64266;48.798;44.756;2023-07-24T22:19:51;100819.91;;;24.40;55.05
75668;BME280;64266;48.798;44.756;2023-07-24T22:24:53;100808.16;;;24.22;55.31
75668;BME280;64266;48.798;44.756;2023-07-24T22:29:57;100761.16;;;23.91;55.75
75668;BME280;64266;48.798;44.756;2023-07-24T22:35:00;100824.00;;;24.28;55.68
75668;BME280;64266;48.798;44.756;2023-07-24T22:40:05;100796.94;;;24.01;55.09
75668;BME280;64266;48.798;44.756;2023-07-24T22:45:09;100828.13;;;24.26;54.74
75668;BME280;64266;48.798;44.756;2023-07-24T22:50:11;100820.13;;;24.07;55.23
75668;BME280;64266;48.798;44.756;2023-07-24T22:55:14;100765.22;;;23.66;55.39
75668;BME280;64266;48.798;44.756;2023-07-24T23:00:21;100820.66;;;23.96;56.18
75668;BME280;64266;48.798;44.756;2023-07-24T23:05:23;100801.00;;;23.90;55.71
75668;BME280;64266;48.798;44.756;2023-07-24T23:10:26;100805.00;;;23.93;56.20
75668;BME280;64266;48.798;44.756;2023-07-24T23:15:29;100825.97;;;23.87;55.98
75668;BME280;64266;48.798;44.756;2023-07-24T23:20:32;100792.41;;;23.61;56.82
75668;BME280;64266;48.798;44.756;2023-07-24T23:25:34;100835.13;;;23.78;57.02
75668;BME280;64266;48.798;44.756;2023-07-24T23:30:41;100829.81;;;23.72;56.78
75668;BME280;64266;48.798;44.756;2023-07-24T23:35:44;100814.09;;;23.61;57.32
75668;BME280;64266;48.798;44.756;2023-07-24T23:40:58;100817.41;;;23.58;57.56
75668;BME280;64266;48.798;44.756;2023-07-24T23:46:10;100775.34;;;23.19;57.66
75668;BME280;64266;48.798;44.756;2023-07-24T23:51:15;100820.09;;;23.44;58.52
75668;BME280;64266;48.798;44.756;2023-07-24T23:56:17;100823.97;;;23.38;58.31
